sensor_id;sensor_type;location;lat;lon;timestamp;temperature;humidity
41447;DHT22;27185;52.040;4.490;2023-12-28T00:02:38;13.10;99.90
41447;DHT22;27185;52.040;4.490;2023-12-28T00:05:24;13.00;99.90
41447;DHT22;27185;52.040;4.490;2023-12-28T00:08:09;13.10;99.90
41447;DHT22;27185;52.040;4.490;2023-12-28T00:10:55;13.00;99.90
41447;DHT22;27185;52.040;4.490;2023-12-28T00:13:40;12.90;99.90
41447;DHT22;27185;52.040;4.490;2023-12-28T00:16:27;12.90;99.90
41447;DHT22;27185;52.040;4.490;2023-12-28T00:19:12;12.90;99.90
41447;DHT22;27185;52.040;4.490;2023-12-28T00:21:58;12.90;99.90
41447;DHT22;27185;52.040;4.490;2023-12-28T00:24:43;12.80;99.90
41447;DHT22;27185;52.040;4.490;2023-12-28T00:27:29;12.80;99.90
41447;DHT22;27185;52.040;4.490;2023-12-28T00:30:15;12.80;99.90
41447;DHT22;27185;52.040;4.490;2023-12-28T00:33:02;12.70;99.90
41447;DHT22;27185;52.040;4.490;2023-12-28T00:35:48;12.70;99.90
41447;DHT22;27185;52.040;4.490;2023-12-28T00:38:33;12.70;99.90
41447;DHT22;27185;52.040;4.490;2023-12-28T00:41:19;12.70;99.90
41447;DHT22;27185;52.040;4.490;2023-12-28T00:44:05;12.60;99.90
41447;DHT22;27185;52.040;4.490;2023-12-28T00:46:52;12.60;99.90
41447;DHT22;27185;52.040;4.490;2023-12-28T00:49:38;12.60;99.90
41447;DHT22;27185;52.040;4.490;2023-12-28T00:52:24;12.60;99.90
41447;DHT22;27185;52.040;4.490;2023-12-28T00:55:10;12.60;99.90
41447;DHT22;27185;52.040;4.490;2023-12-28T00:57:56;12.60;99.90
41447;DHT22;27185;52.040;4.490;2023-12-28T01:00:41;12.50;99.90
41447;DHT22;27185;52.040;4.490;2023-12-28T01:03:30;12.50;99.90
41447;DHT22;27185;52.040;4.490;2023-12-28T01:06:15;12.50;99.90
41447;DHT22;27185;52.040;4.490;2023-12-28T01:09:01;12.60;99.90
41447;DHT22;27185;52.040;4.490;2023-12-28T01:11:47;12.50;99.90
41447;DHT22;27185;52.040;4.490;2023-12-28T01:14:32;12.60;99.90
41447;DHT22;27185;52.040;4.490;2023-12-28T01:17:18;12.60;99.90
41447;DHT22;27185;52.040;4.490;2023-12-28T01:20:05;12.50;99.90
41447;DHT22;27185;52.040;4.490;2023-12-28T01:22:51;12.50;99.90
41447;DHT22;27185;52.040;4.490;2023-12-28T01:25:37;12.50;99.90
41447;DHT22;27185;52.040;4.490;2023-12-28T01:28:23;12.50;99.90
41447;DHT22;27185;52.040;4.490;2023-12-28T01:31:09;12.50;99.90
41447;DHT22;27185;52.040;4.490;2023-12-28T01:33:54;12.50;99.90
41447;DHT22;27185;52.040;4.490;2023-12-28T01:36:40;12.50;99.90
41447;DHT22;27185;52.040;4.490;2023-12-28T01:39:29;12.60;99.90
41447;DHT22;27185;52.040;4.490;2023-12-28T01:42:15;12.60;99.90
41447;DHT22;27185;52.040;4.490;2023-12-28T01:45:00;12.50;99.90
41447;DHT22;27185;52.040;4.490;2023-12-28T01:47:47;12.50;99.90
41447;DHT22;27185;52.040;4.490;2023-12-28T01:50:33;12.50;99.90
41447;DHT22;27185;52.040;4.490;2023-12-28T01:53:19;12.60;99.90
41447;DHT22;27185;52.040;4.490;2023-12-28T01:56:05;12.60;99.90
41447;DHT22;27185;52.040;4.490;2023-12-28T01:58:51;12.50;99.90
41447;DHT22;27185;52.040;4.490;2023-12-28T02:01:38;12.60;99.90
41447;DHT22;27185;52.040;4.490;2023-12-28T02:04:24;12.60;99.90
41447;DHT22;27185;52.040;4.490;2023-12-28T02:07:29;12.60;99.90
41447;DHT22;27185;52.040;4.490;2023-12-28T02:10:17;12.60;99.90
41447;DHT22;27185;52.040;4.490;2023-12-28T02:13:03;12.60;99.90
41447;DHT22;27185;52.040;4.490;2023-12-28T02:15:54;12.60;99.90
41447;DHT22;27185;52.040;4.490;2023-12-28T02:18:44;12.60;99.90
41447;DHT22;27185;52.040;4.490;2023-12-28T02:21:34;12.50;99.90
41447;DHT22;27185;52.040;4.490;2023-12-28T02:24:19;12.60;99.90
41447;DHT22;27185;52.040;4.490;2023-12-28T02:27:05;12.50;99.90
41447;DHT22;27185;52.040;4.490;2023-12-28T02:29:50;12.50;99.90
41447;DHT22;27185;52.040;4.490;2023-12-28T02:32:44;12.50;99.90
41447;DHT22;27185;52.040;4.490;2023-12-28T02:36:04;12.40;99.90
41447;DHT22;27185;52.040;4.490;2023-12-28T02:38:52;12.40;99.90
41447;DHT22;27185;52.040;4.490;2023-12-28T02:41:42;12.40;99.90
41447;DHT22;27185;52.040;4.490;2023-12-28T02:44:28;12.40;99.90
41447;DHT22;27185;52.040;4.490;2023-12-28T02:47:14;12.40;99.90
41447;DHT22;27185;52.040;4.490;2023-12-28T02:49:59;12.40;99.90
41447;DHT22;27185;52.040;4.490;2023-12-28T02:52:45;12.40;99.90
41447;DHT22;27185;52.040;4.490;2023-12-28T02:55:30;12.40;99.90
41447;DHT22;27185;52.040;4.490;2023-12-28T02:58:16;12.40;99.90
41447;DHT22;27185;52.040;4.490;2023-12-28T03:01:01;12.30;99.90
41447;DHT22;27185;52.040;4.490;2023-12-28T03:03:47;12.30;99.90
41447;DHT22;27185;52.040;4.490;2023-12-28T03:06:33;12.30;99.90
41447;DHT22;27185;52.040;4.490;2023-12-28T03:09:18;12.30;99.90
41447;DHT22;27185;52.040;4.490;2023-12-28T03:12:04;12.30;99.90
41447;DHT22;27185;52.040;4.490;2023-12-28T03:14:51;12.30;99.90
41447;DHT22;27185;52.040;4.490;2023-12-28T03:17:36;12.30;99.90
41447;DHT22;27185;52.040;4.490;2023-12-28T03:20:22;12.30;99.90
41447;DHT22;27185;52.040;4.490;2023-12-28T03:23:07;12.20;99.90
41447;DHT22;27185;52.040;4.490;2023-12-28T03:25:53;12.30;99.90
41447;DHT22;27185;52.040;4.490;2023-12-28T03:28:40;12.30;99.90
41447;DHT22;27185;52.040;4.490;2023-12-28T03:31:25;12.30;99.90
41447;DHT22;27185;52.040;4.490;2023-12-28T03:34:11;12.30;99.90
41447;DHT22;27185;52.040;4.490;2023-12-28T03:36:56;12.30;99.90
41447;DHT22;27185;52.040;4.490;2023-12-28T03:39:45;12.30;99.90
41447;DHT22;27185;52.040;4.490;2023-12-28T03:42:31;12.30;99.90
41447;DHT22;27185;52.040;4.490;2023-12-28T03:45:16;12.30;99.90
41447;DHT22;27185;52.040;4.490;2023-12-28T03:48:02;12.30;99.90
41447;DHT22;27185;52.040;4.490;2023-12-28T03:50:47;12.40;99.90
41447;DHT22;27185;52.040;4.490;2023-12-28T03:53:33;12.40;99.90
41447;DHT22;27185;52.040;4.490;2023-12-28T03:56:24;12.50;99.90
41447;DHT22;27185;52.040;4.490;2023-12-28T03:59:10;12.50;99.90
41447;DHT22;27185;52.040;4.490;2023-12-28T04:01:56;12.50;99.90
41447;DHT22;27185;52.040;4.490;2023-12-28T04:04:41;12.60;99.90
41447;DHT22;27185;52.040;4.490;2023-12-28T04:07:27;12.60;99.90
41447;DHT22;27185;52.040;4.490;2023-12-28T04:10:12;12.60;99.90
41447;DHT22;27185;52.040;4.490;2023-12-28T04:12:59;12.70;99.90
41447;DHT22;27185;52.040;4.490;2023-12-28T04:15:46;12.70;99.90
41447;DHT22;27185;52.040;4.490;2023-12-28T04:18:32;12.70;99.90
41447;DHT22;27185;52.040;4.490;2023-12-28T04:21:18;12.70;99.90
41447;DHT22;27185;52.040;4.490;2023-12-28T04:24:04;12.70;99.90
41447;DHT22;27185;52.040;4.490;2023-12-28T04:26:49;12.70;99.90
41447;DHT22;27185;52.040;4.490;2023-12-28T04:29:35;12.70;99.90
41447;DHT22;27185;52.040;4.490;2023-12-28T04:32:21;12.80;99.90
41447;DHT22;27185;52.040;4.490;2023-12-28T04:35:07;12.90;99.90
41447;DHT22;27185;52.040;4.490;2023-12-28T04:37:52;12.90;99.90
41447;DHT22;27185;52.040;4.490;2023-12-28T04:40:38;12.80;99.90
41447;DHT22;27185;52.040;4.490;2023-12-28T04:43:24;12.80;99.90
41447;DHT22;27185;52.040;4.490;2023-12-28T04:46:09;12.80;99.90
41447;DHT22;27185;52.040;4.490;2023-12-28T04:48:55;12.80;99.90
41447;DHT22;27185;52.040;4.490;2023-12-28T04:51:44;12.80;99.90
41447;DHT22;27185;52.040;4.490;2023-12-28T04:54:29;12.90;99.90
41447;DHT22;27185;52.040;4.490;2023-12-28T04:57:15;12.90;99.90
41447;DHT22;27185;52.040;4.490;2023-12-28T05:00:01;12.90;99.90
41447;DHT22;27185;52.040;4.490;2023-12-28T05:02:47;12.90;99.90
41447;DHT22;27185;52.040;4.490;2023-12-28T05:05:32;12.90;99.90
41447;DHT22;27185;52.040;4.490;2023-12-28T05:08:18;13.00;99.90
41447;DHT22;27185;52.040;4.490;2023-12-28T05:11:05;13.00;99.90
41447;DHT22;27185;52.040;4.490;2023-12-28T05:13:52;13.00;99.90
41447;DHT22;27185;52.040;4.490;2023-12-28T05:16:38;13.10;99.90
41447;DHT22;27185;52.040;4.490;2023-12-28T05:19:24;13.00;99.90
41447;DHT22;27185;52.040;4.490;2023-12-28T05:22:09;13.00;99.90
41447;DHT22;27185;52.040;4.490;2023-12-28T05:24:57;13.10;99.90
41447;DHT22;27185;52.040;4.490;2023-12-28T05:27:43;13.00;99.90
41447;DHT22;27185;52.040;4.490;2023-12-28T05:30:30;13.00;99.90
41447;DHT22;27185;52.040;4.490;2023-12-28T05:33:15;13.10;99.90
41447;DHT22;27185;52.040;4.490;2023-12-28T05:36:01;13.10;99.90
41447;DHT22;27185;52.040;4.490;2023-12-28T05:38:46;13.00;99.90
41447;DHT22;27185;52.040;4.490;2023-12-28T05:41:32;13.10;99.90
41447;DHT22;27185;52.040;4.490;2023-12-28T05:44:18;13.00;99.90
41447;DHT22;27185;52.040;4.490;2023-12-28T05:47:03;12.90;99.90
41447;DHT22;27185;52.040;4.490;2023-12-28T05:49:49;13.00;99.90
41447;DHT22;27185;52.040;4.490;2023-12-28T05:52:34;13.00;99.90
41447;DHT22;27185;52.040;4.490;2023-12-28T05:55:20;13.10;99.90
41447;DHT22;27185;52.040;4.490;2023-12-28T05:58:06;13.10;99.90
41447;DHT22;27185;52.040;4.490;2023-12-28T06:00:52;13.10;99.90
41447;DHT22;27185;52.040;4.490;2023-12-28T06:03:37;13.10;99.90
41447;DHT22;27185;52.040;4.490;2023-12-28T06:06:23;13.10;99.90
41447;DHT22;27185;52.040;4.490;2023-12-28T06:09:09;13.20;99.90
41447;DHT22;27185;52.040;4.490;2023-12-28T06:11:55;13.20;99.90
41447;DHT22;27185;52.040;4.490;2023-12-28T06:14:41;13.20;99.90
41447;DHT22;27185;52.040;4.490;2023-12-28T06:17:27;13.20;99.90
41447;DHT22;27185;52.040;4.490;2023-12-28T06:20:12;13.20;99.90
41447;DHT22;27185;52.040;4.490;2023-12-28T06:22:58;13.20;99.90
41447;DHT22;27185;52.040;4.490;2023-12-28T06:25:44;13.20;99.90
41447;DHT22;27185;52.040;4.490;2023-12-28T06:28:30;13.20;99.90
41447;DHT22;27185;52.040;4.490;2023-12-28T06:31:15;13.20;99.90
41447;DHT22;27185;52.040;4.490;2023-12-28T06:34:05;13.10;99.90
41447;DHT22;27185;52.040;4.490;2023-12-28T06:36:51;13.10;99.90
41447;DHT22;27185;52.040;4.490;2023-12-28T06:39:37;13.10;99.90
41447;DHT22;27185;52.040;4.490;2023-12-28T06:42:22;13.10;99.90
41447;DHT22;27185;52.040;4.490;2023-12-28T06:45:08;13.00;99.90
41447;DHT22;27185;52.040;4.490;2023-12-28T06:47:54;13.00;99.90
41447;DHT22;27185;52.040;4.490;2023-12-28T06:50:40;12.90;99.90
41447;DHT22;27185;52.040;4.490;2023-12-28T06:53:25;12.90;99.90
41447;DHT22;27185;52.040;4.490;2023-12-28T06:56:11;12.80;99.90
41447;DHT22;27185;52.040;4.490;2023-12-28T06:58:56;12.80;99.90
41447;DHT22;27185;52.040;4.490;2023-12-28T07:01:42;12.80;99.90
41447;DHT22;27185;52.040;4.490;2023-12-28T07:04:29;12.70;99.90
41447;DHT22;27185;52.040;4.490;2023-12-28T07:07:15;12.60;99.90
41447;DHT22;27185;52.040;4.490;2023-12-28T07:10:00;12.60;99.90
41447;DHT22;27185;52.040;4.490;2023-12-28T07:12:46;12.60;99.90
41447;DHT22;27185;52.040;4.490;2023-12-28T07:15:31;12.60;99.90
41447;DHT22;27185;52.040;4.490;2023-12-28T07:18:17;12.60;99.90
41447;DHT22;27185;52.040;4.490;2023-12-28T07:21:02;12.60;99.90
41447;DHT22;27185;52.040;4.490;2023-12-28T07:23:48;12.60;99.90
41447;DHT22;27185;52.040;4.490;2023-12-28T07:26:34;12.70;99.90
41447;DHT22;27185;52.040;4.490;2023-12-28T07:29:20;12.70;99.90
41447;DHT22;27185;52.040;4.490;2023-12-28T07:32:05;12.70;99.90
41447;DHT22;27185;52.040;4.490;2023-12-28T07:34:53;12.70;99.90
41447;DHT22;27185;52.040;4.490;2023-12-28T07:37:39;12.80;99.90
41447;DHT22;27185;52.040;4.490;2023-12-28T07:40:24;12.70;99.90
41447;DHT22;27185;52.040;4.490;2023-12-28T07:43:10;12.80;99.90
41447;DHT22;27185;52.040;4.490;2023-12-28T07:45:56;12.70;99.90
41447;DHT22;27185;52.040;4.490;2023-12-28T07:48:41;12.80;99.90
41447;DHT22;27185;52.040;4.490;2023-12-28T07:51:27;12.70;99.90
41447;DHT22;27185;52.040;4.490;2023-12-28T07:54:12;12.70;99.90
41447;DHT22;27185;52.040;4.490;2023-12-28T07:56:59;12.70;99.90
41447;DHT22;27185;52.040;4.490;2023-12-28T07:59:45;12.60;99.90
41447;DHT22;27185;52.040;4.490;2023-12-28T08:02:30;12.70;99.90
41447;DHT22;27185;52.040;4.490;2023-12-28T08:05:16;12.70;99.90
41447;DHT22;27185;52.040;4.490;2023-12-28T08:08:02;12.70;99.90
41447;DHT22;27185;52.040;4.490;2023-12-28T08:10:48;12.70;99.90
41447;DHT22;27185;52.040;4.490;2023-12-28T08:13:33;12.70;99.90
41447;DHT22;27185;52.040;4.490;2023-12-28T08:16:19;12.70;99.90
41447;DHT22;27185;52.040;4.490;2023-12-28T08:19:05;12.80;99.90
41447;DHT22;27185;52.040;4.490;2023-12-28T08:21:51;12.80;99.90
41447;DHT22;27185;52.040;4.490;2023-12-28T08:24:36;12.70;99.90
41447;DHT22;27185;52.040;4.490;2023-12-28T08:27:22;12.80;99.90
41447;DHT22;27185;52.040;4.490;2023-12-28T08:30:08;12.80;99.90
41447;DHT22;27185;52.040;4.490;2023-12-28T08:32:54;12.80;99.90
41447;DHT22;27185;52.040;4.490;2023-12-28T08:35:39;12.90;99.90
41447;DHT22;27185;52.040;4.490;2023-12-28T08:38:25;12.90;99.90
41447;DHT22;27185;52.040;4.490;2023-12-28T08:41:23;12.90;99.90
41447;DHT22;27185;52.040;4.490;2023-12-28T08:44:13;12.90;99.90
41447;DHT22;27185;52.040;4.490;2023-12-28T08:46:59;12.90;99.90
41447;DHT22;27185;52.040;4.490;2023-12-28T08:49:44;12.80;99.90
41447;DHT22;27185;52.040;4.490;2023-12-28T08:52:30;12.80;99.90
41447;DHT22;27185;52.040;4.490;2023-12-28T08:55:15;12.80;99.90
41447;DHT22;27185;52.040;4.490;2023-12-28T08:58:01;12.80;99.90
41447;DHT22;27185;52.040;4.490;2023-12-28T09:00:47;12.70;99.90
41447;DHT22;27185;52.040;4.490;2023-12-28T09:03:34;12.70;99.90
41447;DHT22;27185;52.040;4.490;2023-12-28T09:06:20;12.60;99.90
41447;DHT22;27185;52.040;4.490;2023-12-28T09:09:05;12.70;99.90
41447;DHT22;27185;52.040;4.490;2023-12-28T09:11:51;12.70;99.90
41447;DHT22;27185;52.040;4.490;2023-12-28T09:14:37;12.70;99.90
41447;DHT22;27185;52.040;4.490;2023-12-28T09:17:23;12.80;99.90
41447;DHT22;27185;52.040;4.490;2023-12-28T09:20:10;12.80;99.90
41447;DHT22;27185;52.040;4.490;2023-12-28T09:22:57;12.80;99.90
41447;DHT22;27185;52.040;4.490;2023-12-28T09:25:42;12.90;99.90
41447;DHT22;27185;52.040;4.490;2023-12-28T09:28:28;12.90;99.90
41447;DHT22;27185;52.040;4.490;2023-12-28T09:31:14;13.00;99.90
41447;DHT22;27185;52.040;4.490;2023-12-28T09:33:59;13.00;99.90
41447;DHT22;27185;52.040;4.490;2023-12-28T09:36:45;12.90;99.90
41447;DHT22;27185;52.040;4.490;2023-12-28T09:39:30;12.90;99.90
41447;DHT22;27185;52.040;4.490;2023-12-28T09:42:20;12.90;99.90
41447;DHT22;27185;52.040;4.490;2023-12-28T09:45:10;12.70;99.90
41447;DHT22;27185;52.040;4.490;2023-12-28T09:47:56;12.70;99.90
41447;DHT22;27185;52.040;4.490;2023-12-28T09:50:42;12.60;99.90
41447;DHT22;27185;52.040;4.490;2023-12-28T09:53:28;12.50;99.90
41447;DHT22;27185;52.040;4.490;2023-12-28T09:56:15;12.40;99.90
41447;DHT22;27185;52.040;4.490;2023-12-28T09:59:02;12.30;99.90
41447;DHT22;27185;52.040;4.490;2023-12-28T10:01:48;12.30;99.90
41447;DHT22;27185;52.040;4.490;2023-12-28T10:04:34;12.30;99.90
41447;DHT22;27185;52.040;4.490;2023-12-28T10:07:21;12.30;99.90
41447;DHT22;27185;52.040;4.490;2023-12-28T10:10:07;12.40;99.90
41447;DHT22;27185;52.040;4.490;2023-12-28T10:12:53;12.40;99.90
41447;DHT22;27185;52.040;4.490;2023-12-28T10:15:39;12.50;99.90
41447;DHT22;27185;52.040;4.490;2023-12-28T10:18:24;12.60;99.90
41447;DHT22;27185;52.040;4.490;2023-12-28T10:21:11;12.70;99.90
41447;DHT22;27185;52.040;4.490;2023-12-28T10:23:57;12.70;99.90
41447;DHT22;27185;52.040;4.490;2023-12-28T10:26:43;12.80;99.90
41447;DHT22;27185;52.040;4.490;2023-12-28T10:29:28;12.90;99.90
41447;DHT22;27185;52.040;4.490;2023-12-28T10:32:14;12.90;99.90
41447;DHT22;27185;52.040;4.490;2023-12-28T10:35:00;12.90;99.90
41447;DHT22;27185;52.040;4.490;2023-12-28T10:37:46;13.00;99.90
41447;DHT22;27185;52.040;4.490;2023-12-28T10:40:37;13.00;99.90
41447;DHT22;27185;52.040;4.490;2023-12-28T10:43:24;13.10;99.90
41447;DHT22;27185;52.040;4.490;2023-12-28T10:46:26;13.10;99.90
41447;DHT22;27185;52.040;4.490;2023-12-28T10:49:16;13.20;99.90
41447;DHT22;27185;52.040;4.490;2023-12-28T10:52:04;13.20;99.90
41447;DHT22;27185;52.040;4.490;2023-12-28T10:55:10;13.20;99.90
41447;DHT22;27185;52.040;4.490;2023-12-28T10:58:10;13.20;99.90
41447;DHT22;27185;52.040;4.490;2023-12-28T11:01:00;13.30;99.90
41447;DHT22;27185;52.040;4.490;2023-12-28T11:03:52;13.30;99.90
41447;DHT22;27185;52.040;4.490;2023-12-28T11:06:43;13.40;99.90
41447;DHT22;27185;52.040;4.490;2023-12-28T11:09:31;13.30;99.90
41447;DHT22;27185;52.040;4.490;2023-12-28T11:12:16;13.30;99.90
41447;DHT22;27185;52.040;4.490;2023-12-28T11:15:05;13.30;99.90
41447;DHT22;27185;52.040;4.490;2023-12-28T11:17:52;13.40;99.90
41447;DHT22;27185;52.040;4.490;2023-12-28T11:20:38;13.30;99.90
41447;DHT22;27185;52.040;4.490;2023-12-28T11:23:24;13.30;99.90
41447;DHT22;27185;52.040;4.490;2023-12-28T11:26:21;13.40;99.90
41447;DHT22;27185;52.040;4.490;2023-12-28T11:29:06;13.30;99.90
41447;DHT22;27185;52.040;4.490;2023-12-28T11:31:53;13.30;99.90
41447;DHT22;27185;52.040;4.490;2023-12-28T11:34:39;13.30;99.90
41447;DHT22;27185;52.040;4.490;2023-12-28T11:37:26;13.30;99.90
41447;DHT22;27185;52.040;4.490;2023-12-28T11:40:16;13.30;99.90
41447;DHT22;27185;52.040;4.490;2023-12-28T11:43:01;13.30;99.90
41447;DHT22;27185;52.040;4.490;2023-12-28T11:46:07;13.30;99.90
41447;DHT22;27185;52.040;4.490;2023-12-28T11:49:06;13.30;99.90
41447;DHT22;27185;52.040;4.490;2023-12-28T11:51:57;13.40;99.90
41447;DHT22;27185;52.040;4.490;2023-12-28T11:54:49;13.30;99.90
41447;DHT22;27185;52.040;4.490;2023-12-28T11:57:36;13.40;99.90
41447;DHT22;27185;52.040;4.490;2023-12-28T12:00:23;13.50;99.90
41447;DHT22;27185;52.040;4.490;2023-12-28T12:03:13;13.60;99.90
41447;DHT22;27185;52.040;4.490;2023-12-28T12:05:59;13.60;99.90
41447;DHT22;27185;52.040;4.490;2023-12-28T12:08:49;13.60;99.90
41447;DHT22;27185;52.040;4.490;2023-12-28T12:11:35;13.60;99.90
41447;DHT22;27185;52.040;4.490;2023-12-28T12:14:23;13.70;99.90
41447;DHT22;27185;52.040;4.490;2023-12-28T12:17:09;13.60;99.90
41447;DHT22;27185;52.040;4.490;2023-12-28T12:19:55;13.60;99.90
41447;DHT22;27185;52.040;4.490;2023-12-28T12:22:42;13.60;99.90
41447;DHT22;27185;52.040;4.490;2023-12-28T12:25:28;13.60;99.90
41447;DHT22;27185;52.040;4.490;2023-12-28T12:28:14;13.60;99.90
41447;DHT22;27185;52.040;4.490;2023-12-28T12:31:00;13.60;99.90
41447;DHT22;27185;52.040;4.490;2023-12-28T12:33:50;13.70;99.90
41447;DHT22;27185;52.040;4.490;2023-12-28T12:36:37;13.60;99.90
41447;DHT22;27185;52.040;4.490;2023-12-28T12:39:23;13.60;99.90
41447;DHT22;27185;52.040;4.490;2023-12-28T12:42:13;13.60;99.90
41447;DHT22;27185;52.040;4.490;2023-12-28T12:44:59;13.60;99.90
41447;DHT22;27185;52.040;4.490;2023-12-28T12:47:46;13.70;99.90
41447;DHT22;27185;52.040;4.490;2023-12-28T12:50:32;13.70;99.90
41447;DHT22;27185;52.040;4.490;2023-12-28T12:53:18;13.80;99.90
41447;DHT22;27185;52.040;4.490;2023-12-28T12:56:04;13.70;99.90
41447;DHT22;27185;52.040;4.490;2023-12-28T12:58:50;13.80;99.90
41447;DHT22;27185;52.040;4.490;2023-12-28T13:01:36;13.60;99.90
41447;DHT22;27185;52.040;4.490;2023-12-28T13:04:22;13.60;99.90
41447;DHT22;27185;52.040;4.490;2023-12-28T13:07:08;13.60;99.90
41447;DHT22;27185;52.040;4.490;2023-12-28T13:09:54;13.60;99.90
41447;DHT22;27185;52.040;4.490;2023-12-28T13:12:40;13.60;99.90
41447;DHT22;27185;52.040;4.490;2023-12-28T13:15:25;13.50;99.90
41447;DHT22;27185;52.040;4.490;2023-12-28T13:18:11;13.60;99.90
41447;DHT22;27185;52.040;4.490;2023-12-28T13:20:56;13.60;99.90
41447;DHT22;27185;52.040;4.490;2023-12-28T13:23:42;13.40;99.90
41447;DHT22;27185;52.040;4.490;2023-12-28T13:26:27;13.30;99.90
41447;DHT22;27185;52.040;4.490;2023-12-28T13:29:13;13.20;99.90
41447;DHT22;27185;52.040;4.490;2023-12-28T13:31:59;12.90;99.90
41447;DHT22;27185;52.040;4.490;2023-12-28T13:34:44;12.70;99.90
41447;DHT22;27185;52.040;4.490;2023-12-28T13:37:30;12.60;99.90
41447;DHT22;27185;52.040;4.490;2023-12-28T13:40:15;12.40;99.90
41447;DHT22;27185;52.040;4.490;2023-12-28T13:43:01;12.40;99.90
41447;DHT22;27185;52.040;4.490;2023-12-28T13:45:46;12.40;99.90
41447;DHT22;27185;52.040;4.490;2023-12-28T13:48:32;12.30;99.90
41447;DHT22;27185;52.040;4.490;2023-12-28T13:51:19;12.30;99.90
41447;DHT22;27185;52.040;4.490;2023-12-28T13:54:04;12.40;99.90
41447;DHT22;27185;52.040;4.490;2023-12-28T13:56:51;12.40;99.90
41447;DHT22;27185;52.040;4.490;2023-12-28T13:59:42;12.40;99.90
41447;DHT22;27185;52.040;4.490;2023-12-28T14:02:28;12.40;99.90
41447;DHT22;27185;52.040;4.490;2023-12-28T14:05:13;12.40;99.90
41447;DHT22;27185;52.040;4.490;2023-12-28T14:07:59;12.40;99.90
41447;DHT22;27185;52.040;4.490;2023-12-28T14:10:44;12.50;99.90
41447;DHT22;27185;52.040;4.490;2023-12-28T14:13:30;12.50;99.90
41447;DHT22;27185;52.040;4.490;2023-12-28T14:16:16;12.50;99.90
41447;DHT22;27185;52.040;4.490;2023-12-28T14:19:02;12.50;99.90
41447;DHT22;27185;52.040;4.490;2023-12-28T14:21:47;12.50;99.90
41447;DHT22;27185;52.040;4.490;2023-12-28T14:24:33;12.50;99.90
41447;DHT22;27185;52.040;4.490;2023-12-28T14:27:19;12.50;99.90
41447;DHT22;27185;52.040;4.490;2023-12-28T14:30:05;12.40;99.90
41447;DHT22;27185;52.040;4.490;2023-12-28T14:32:52;12.50;99.90
41447;DHT22;27185;52.040;4.490;2023-12-28T14:35:37;12.40;99.90
41447;DHT22;27185;52.040;4.490;2023-12-28T14:38:24;12.40;99.90
41447;DHT22;27185;52.040;4.490;2023-12-28T14:41:10;12.50;99.90
41447;DHT22;27185;52.040;4.490;2023-12-28T14:43:56;12.50;99.90
41447;DHT22;27185;52.040;4.490;2023-12-28T14:46:42;12.60;99.90
41447;DHT22;27185;52.040;4.490;2023-12-28T14:49:28;12.60;99.90
41447;DHT22;27185;52.040;4.490;2023-12-28T14:52:13;12.70;99.90
41447;DHT22;27185;52.040;4.490;2023-12-28T14:54:59;12.70;99.90
41447;DHT22;27185;52.040;4.490;2023-12-28T14:57:44;12.80;99.90
41447;DHT22;27185;52.040;4.490;2023-12-28T15:00:30;12.80;99.90
41447;DHT22;27185;52.040;4.490;2023-12-28T15:03:16;12.80;99.90
41447;DHT22;27185;52.040;4.490;2023-12-28T15:06:01;12.80;99.90
41447;DHT22;27185;52.040;4.490;2023-12-28T15:08:47;12.90;99.90
41447;DHT22;27185;52.040;4.490;2023-12-28T15:11:33;12.90;99.90
41447;DHT22;27185;52.040;4.490;2023-12-28T15:14:18;13.00;99.90
41447;DHT22;27185;52.040;4.490;2023-12-28T15:17:04;13.10;99.90
41447;DHT22;27185;52.040;4.490;2023-12-28T15:19:50;13.20;99.90
41447;DHT22;27185;52.040;4.490;2023-12-28T15:22:36;13.20;99.90
41447;DHT22;27185;52.040;4.490;2023-12-28T15:25:21;13.20;99.90
41447;DHT22;27185;52.040;4.490;2023-12-28T15:28:07;13.20;99.90
41447;DHT22;27185;52.040;4.490;2023-12-28T15:30:53;13.20;99.90
41447;DHT22;27185;52.040;4.490;2023-12-28T15:33:38;13.30;99.90
41447;DHT22;27185;52.040;4.490;2023-12-28T15:36:24;13.20;99.90
41447;DHT22;27185;52.040;4.490;2023-12-28T15:39:09;13.20;99.90
41447;DHT22;27185;52.040;4.490;2023-12-28T15:41:55;13.30;99.90
41447;DHT22;27185;52.040;4.490;2023-12-28T15:44:40;13.30;99.90
41447;DHT22;27185;52.040;4.490;2023-12-28T15:47:26;13.20;99.90
41447;DHT22;27185;52.040;4.490;2023-12-28T15:50:13;13.10;99.90
41447;DHT22;27185;52.040;4.490;2023-12-28T15:52:59;13.20;99.90
41447;DHT22;27185;52.040;4.490;2023-12-28T15:55:45;13.20;99.90
41447;DHT22;27185;52.040;4.490;2023-12-28T15:58:30;13.20;99.90
41447;DHT22;27185;52.040;4.490;2023-12-28T16:01:17;13.10;99.90
41447;DHT22;27185;52.040;4.490;2023-12-28T16:04:03;13.20;99.90
41447;DHT22;27185;52.040;4.490;2023-12-28T16:06:49;13.20;99.90
41447;DHT22;27185;52.040;4.490;2023-12-28T16:09:34;13.20;99.90
41447;DHT22;27185;52.040;4.490;2023-12-28T16:12:20;13.20;99.90
41447;DHT22;27185;52.040;4.490;2023-12-28T16:15:06;13.20;99.90
41447;DHT22;27185;52.040;4.490;2023-12-28T16:17:52;13.30;99.90
41447;DHT22;27185;52.040;4.490;2023-12-28T16:20:42;13.20;99.90
41447;DHT22;27185;52.040;4.490;2023-12-28T16:23:28;13.20;99.90
41447;DHT22;27185;52.040;4.490;2023-12-28T16:26:14;13.20;99.90
41447;DHT22;27185;52.040;4.490;2023-12-28T16:28:59;13.20;99.90
41447;DHT22;27185;52.040;4.490;2023-12-28T16:31:47;13.30;99.90
41447;DHT22;27185;52.040;4.490;2023-12-28T16:34:33;13.20;99.90
41447;DHT22;27185;52.040;4.490;2023-12-28T16:37:21;13.20;99.90
41447;DHT22;27185;52.040;4.490;2023-12-28T16:40:07;13.20;99.90
41447;DHT22;27185;52.040;4.490;2023-12-28T16:42:53;13.10;99.90
41447;DHT22;27185;52.040;4.490;2023-12-28T16:45:39;13.20;99.90
41447;DHT22;27185;52.040;4.490;2023-12-28T16:48:25;13.20;99.90
41447;DHT22;27185;52.040;4.490;2023-12-28T16:51:10;13.10;99.90
41447;DHT22;27185;52.040;4.490;2023-12-28T16:53:56;13.10;99.90
41447;DHT22;27185;52.040;4.490;2023-12-28T16:56:41;13.20;99.90
41447;DHT22;27185;52.040;4.490;2023-12-28T16:59:27;13.20;99.90
41447;DHT22;27185;52.040;4.490;2023-12-28T17:02:13;13.20;99.90
41447;DHT22;27185;52.040;4.490;2023-12-28T17:04:59;13.20;99.90
41447;DHT22;27185;52.040;4.490;2023-12-28T17:07:45;13.20;99.90
41447;DHT22;27185;52.040;4.490;2023-12-28T17:10:31;13.10;99.90
41447;DHT22;27185;52.040;4.490;2023-12-28T17:13:17;13.20;99.90
41447;DHT22;27185;52.040;4.490;2023-12-28T17:16:05;13.20;99.90
41447;DHT22;27185;52.040;4.490;2023-12-28T17:18:50;13.20;99.90
41447;DHT22;27185;52.040;4.490;2023-12-28T17:21:39;13.20;99.90
41447;DHT22;27185;52.040;4.490;2023-12-28T17:24:27;13.20;99.90
41447;DHT22;27185;52.040;4.490;2023-12-28T17:27:22;13.20;99.90
41447;DHT22;27185;52.040;4.490;2023-12-28T17:30:11;13.20;99.90
41447;DHT22;27185;52.040;4.490;2023-12-28T17:33:02;13.10;99.90